sensor_id;sensor_type;location;lat;lon;timestamp;P1;durP1;ratioP1;P2;durP2;ratioP2
2996;SDS011;1508;48.744;9.110;2022-07-21T00:01:42;27.15;;;24.27;;
2996;SDS011;1508;48.744;9.110;2022-07-21T00:04:28;27.10;;;24.20;;
2996;SDS011;1508;48.744;9.110;2022-07-21T00:07:13;27.02;;;24.33;;
2996;SDS011;1508;48.744;9.110;2022-07-21T00:09:59;23.95;;;21.45;;
2996;SDS011;1508;48.744;9.110;2022-07-21T00:12:45;24.20;;;20.77;;
2996;SDS011;1508;48.744;9.110;2022-07-21T00:15:31;26.15;;;23.45;;
2996;SDS011;1508;48.744;9.110;2022-07-21T00:18:18;24.37;;;22.07;;
2996;SDS011;1508;48.744;9.110;2022-07-21T00:21:04;23.30;;;21.05;;
2996;SDS011;1508;48.744;9.110;2022-07-21T00:23:50;22.60;;;20.27;;
2996;SDS011;1508;48.744;9.110;2022-07-21T00:26:36;23.10;;;20.75;;
2996;SDS011;1508;48.744;9.110;2022-07-21T00:29:22;21.30;;;19.20;;
2996;SDS011;1508;48.744;9.110;2022-07-21T00:32:08;21.35;;;19.15;;
2996;SDS011;1508;48.744;9.110;2022-07-21T00:34:54;21.58;;;19.48;;
2996;SDS011;1508;48.744;9.110;2022-07-21T00:37:40;20.77;;;18.77;;
2996;SDS011;1508;48.744;9.110;2022-07-21T00:40:26;21.90;;;19.80;;
2996;SDS011;1508;48.744;9.110;2022-07-21T00:43:13;21.37;;;19.27;;
2996;SDS011;1508;48.744;9.110;2022-07-21T00:45:58;21.27;;;19.27;;
2996;SDS011;1508;48.744;9.110;2022-07-21T00:48:44;23.07;;;20.93;;
2996;SDS011;1508;48.744;9.110;2022-07-21T00:51:30;24.80;;;22.33;;
2996;SDS011;1508;48.744;9.110;2022-07-21T00:54:17;23.03;;;20.73;;
2996;SDS011;1508;48.744;9.110;2022-07-21T00:57:04;21.05;;;19.15;;
2996;SDS011;1508;48.744;9.110;2022-07-21T00:59:51;21.63;;;19.45;;
2996;SDS011;1508;48.744;9.110;2022-07-21T01:02:37;20.60;;;18.60;;
2996;SDS011;1508;48.744;9.110;2022-07-21T01:05:23;21.73;;;19.50;;
2996;SDS011;1508;48.744;9.110;2022-07-21T01:08:09;22.90;;;20.52;;
2996;SDS011;1508;48.744;9.110;2022-07-21T01:10:56;21.20;;;19.20;;
2996;SDS011;1508;48.744;9.110;2022-07-21T01:13:42;20.97;;;18.87;;
2996;SDS011;1508;48.744;9.110;2022-07-21T01:16:28;19.92;;;17.83;;
2996;SDS011;1508;48.744;9.110;2022-07-21T01:19:14;20.05;;;18.05;;
2996;SDS011;1508;48.744;9.110;2022-07-21T01:21:59;19.90;;;17.80;;
2996;SDS011;1508;48.744;9.110;2022-07-21T01:24:45;17.27;;;15.57;;
2996;SDS011;1508;48.744;9.110;2022-07-21T01:27:32;17.83;;;16.23;;
2996;SDS011;1508;48.744;9.110;2022-07-21T01:30:18;18.38;;;16.50;;
2996;SDS011;1508;48.744;9.110;2022-07-21T01:33:03;18.90;;;17.05;;
2996;SDS011;1508;48.744;9.110;2022-07-21T01:35:49;18.30;;;16.48;;
2996;SDS011;1508;48.744;9.110;2022-07-21T01:38:35;18.67;;;16.88;;
2996;SDS011;1508;48.744;9.110;2022-07-21T01:41:21;19.48;;;15.82;;
2996;SDS011;1508;48.744;9.110;2022-07-21T01:44:08;18.02;;;16.23;;
2996;SDS011;1508;48.744;9.110;2022-07-21T01:46:55;17.52;;;15.73;;
2996;SDS011;1508;48.744;9.110;2022-07-21T01:49:41;17.80;;;15.93;;
2996;SDS011;1508;48.744;9.110;2022-07-21T01:52:27;17.85;;;15.95;;
2996;SDS011;1508;48.744;9.110;2022-07-21T01:55:13;17.50;;;15.48;;
2996;SDS011;1508;48.744;9.110;2022-07-21T01:58:00;17.57;;;15.13;;
2996;SDS011;1508;48.744;9.110;2022-07-21T02:00:46;17.15;;;15.35;;
2996;SDS011;1508;48.744;9.110;2022-07-21T02:03:32;15.80;;;14.20;;
2996;SDS011;1508;48.744;9.110;2022-07-21T02:06:18;17.38;;;15.63;;
2996;SDS011;1508;48.744;9.110;2022-07-21T02:09:04;17.10;;;15.10;;
2996;SDS011;1508;48.744;9.110;2022-07-21T02:11:50;17.00;;;15.30;;
2996;SDS011;1508;48.744;9.110;2022-07-21T02:14:35;17.00;;;15.30;;
2996;SDS011;1508;48.744;9.110;2022-07-21T02:17:22;16.13;;;14.30;;
2996;SDS011;1508;48.744;9.110;2022-07-21T02:20:07;15.82;;;13.90;;
2996;SDS011;1508;48.744;9.110;2022-07-21T02:22:54;17.98;;;14.70;;
2996;SDS011;1508;48.744;9.110;2022-07-21T02:25:40;16.80;;;15.13;;
2996;SDS011;1508;48.744;9.110;2022-07-21T02:28:26;16.48;;;14.77;;
2996;SDS011;1508;48.744;9.110;2022-07-21T02:31:12;17.63;;;15.68;;
2996;SDS011;1508;48.744;9.110;2022-07-21T02:33:58;17.80;;;15.93;;
2996;SDS011;1508;48.744;9.110;2022-07-21T02:36:44;18.02;;;16.23;;
2996;SDS011;1508;48.744;9.110;2022-07-21T02:39:30;17.40;;;15.65;;
2996;SDS011;1508;48.744;9.110;2022-07-21T02:42:16;14.80;;;13.35;;
2996;SDS011;1508;48.744;9.110;2022-07-21T02:45:02;16.75;;;15.07;;
2996;SDS011;1508;48.744;9.110;2022-07-21T02:50:43;15.25;;;12.80;;
2996;SDS011;1508;48.744;9.110;2022-07-21T02:53:29;14.75;;;13.35;;
2996;SDS011;1508;48.744;9.110;2022-07-21T02:56:15;16.50;;;13.53;;
2996;SDS011;1508;48.744;9.110;2022-07-21T02:59:01;17.30;;;14.70;;
2996;SDS011;1508;48.744;9.110;2022-07-21T03:01:47;15.52;;;12.98;;
2996;SDS011;1508;48.744;9.110;2022-07-21T03:04:33;14.13;;;12.73;;
2996;SDS011;1508;48.744;9.110;2022-07-21T03:07:19;15.40;;;13.40;;
2996;SDS011;1508;48.744;9.110;2022-07-21T03:10:05;15.20;;;13.60;;
2996;SDS011;1508;48.744;9.110;2022-07-21T03:12:51;16.60;;;14.00;;
2996;SDS011;1508;48.744;9.110;2022-07-21T03:15:37;13.63;;;12.30;;
2996;SDS011;1508;48.744;9.110;2022-07-21T03:18:24;14.10;;;11.95;;
2996;SDS011;1508;48.744;9.110;2022-07-21T03:21:10;15.55;;;13.35;;
2996;SDS011;1508;48.744;9.110;2022-07-21T03:23:56;14.40;;;12.52;;
2996;SDS011;1508;48.744;9.110;2022-07-21T03:26:41;12.95;;;11.75;;
2996;SDS011;1508;48.744;9.110;2022-07-21T03:29:27;13.23;;;11.85;;
2996;SDS011;1508;48.744;9.110;2022-07-21T03:32:13;14.45;;;12.93;;
2996;SDS011;1508;48.744;9.110;2022-07-21T03:34:59;13.35;;;12.05;;
2996;SDS011;1508;48.744;9.110;2022-07-21T03:37:47;14.65;;;13.18;;
2996;SDS011;1508;48.744;9.110;2022-07-21T03:40:34;14.18;;;12.00;;
2996;SDS011;1508;48.744;9.110;2022-07-21T03:43:21;15.50;;;13.88;;
2996;SDS011;1508;48.744;9.110;2022-07-21T03:46:07;14.35;;;12.52;;
2996;SDS011;1508;48.744;9.110;2022-07-21T03:48:53;14.25;;;12.75;;
2996;SDS011;1508;48.744;9.110;2022-07-21T03:51:39;14.98;;;12.98;;
2996;SDS011;1508;48.744;9.110;2022-07-21T03:54:24;14.98;;;13.48;;
2996;SDS011;1508;48.744;9.110;2022-07-21T03:57:10;15.00;;;13.50;;
2996;SDS011;1508;48.744;9.110;2022-07-21T03:59:56;13.60;;;12.20;;
2996;SDS011;1508;48.744;9.110;2022-07-21T04:02:42;15.18;;;12.95;;
2996;SDS011;1508;48.744;9.110;2022-07-21T04:05:29;14.38;;;12.98;;
2996;SDS011;1508;48.744;9.110;2022-07-21T04:08:15;13.88;;;12.57;;
2996;SDS011;1508;48.744;9.110;2022-07-21T04:11:01;13.82;;;12.43;;
2996;SDS011;1508;48.744;9.110;2022-07-21T04:13:46;16.27;;;14.67;;
2996;SDS011;1508;48.744;9.110;2022-07-21T04:16:32;17.33;;;15.43;;
2996;SDS011;1508;48.744;9.110;2022-07-21T04:19:18;15.00;;;13.40;;
2996;SDS011;1508;48.744;9.110;2022-07-21T04:22:04;16.00;;;14.40;;
2996;SDS011;1508;48.744;9.110;2022-07-21T04:24:50;15.63;;;13.93;;
2996;SDS011;1508;48.744;9.110;2022-07-21T04:27:36;14.45;;;12.77;;
2996;SDS011;1508;48.744;9.110;2022-07-21T04:30:22;16.10;;;14.25;;
2996;SDS011;1508;48.744;9.110;2022-07-21T04:33:08;15.70;;;14.10;;
2996;SDS011;1508;48.744;9.110;2022-07-21T04:35:54;13.93;;;12.40;;
2996;SDS011;1508;48.744;9.110;2022-07-21T04:38:40;14.17;;;12.63;;
2996;SDS011;1508;48.744;9.110;2022-07-21T04:41:26;15.00;;;13.50;;
2996;SDS011;1508;48.744;9.110;2022-07-21T04:44:12;13.90;;;12.50;;
2996;SDS011;1508;48.744;9.110;2022-07-21T04:46:58;14.37;;;12.77;;
2996;SDS011;1508;48.744;9.110;2022-07-21T04:49:43;15.07;;;13.57;;
2996;SDS011;1508;48.744;9.110;2022-07-21T04:52:29;14.77;;;13.27;;
2996;SDS011;1508;48.744;9.110;2022-07-21T04:55:15;14.40;;;13.00;;
2996;SDS011;1508;48.744;9.110;2022-07-21T04:58:02;16.85;;;13.60;;
2996;SDS011;1508;48.744;9.110;2022-07-21T05:00:48;14.40;;;12.02;;
2996;SDS011;1508;48.744;9.110;2022-07-21T05:03:33;13.30;;;12.00;;
2996;SDS011;1508;48.744;9.110;2022-07-21T05:06:19;12.13;;;10.93;;
2996;SDS011;1508;48.744;9.110;2022-07-21T05:09:05;13.07;;;11.40;;
2996;SDS011;1508;48.744;9.110;2022-07-21T05:11:51;14.25;;;12.05;;
2996;SDS011;1508;48.744;9.110;2022-07-21T05:14:37;12.38;;;11.18;;
2996;SDS011;1508;48.744;9.110;2022-07-21T05:17:23;13.98;;;11.32;;
2996;SDS011;1508;48.744;9.110;2022-07-21T05:20:09;12.98;;;11.60;;
2996;SDS011;1508;48.744;9.110;2022-07-21T05:22:55;15.40;;;13.05;;
2996;SDS011;1508;48.744;9.110;2022-07-21T05:25:41;15.25;;;13.75;;
2996;SDS011;1508;48.744;9.110;2022-07-21T05:28:27;15.70;;;14.10;;
2996;SDS011;1508;48.744;9.110;2022-07-21T05:31:13;18.80;;;14.88;;
2996;SDS011;1508;48.744;9.110;2022-07-21T05:33:59;15.68;;;13.57;;
2996;SDS011;1508;48.744;9.110;2022-07-21T05:36:45;19.15;;;13.88;;
2996;SDS011;1508;48.744;9.110;2022-07-21T05:39:31;15.30;;;13.68;;
2996;SDS011;1508;48.744;9.110;2022-07-21T05:42:17;15.55;;;13.95;;
2996;SDS011;1508;48.744;9.110;2022-07-21T05:45:03;14.73;;;11.55;;
2996;SDS011;1508;48.744;9.110;2022-07-21T05:47:49;13.20;;;11.80;;
2996;SDS011;1508;48.744;9.110;2022-07-21T05:50:35;13.95;;;12.55;;
2996;SDS011;1508;48.744;9.110;2022-07-21T05:53:21;12.63;;;11.32;;
2996;SDS011;1508;48.744;9.110;2022-07-21T05:56:07;11.80;;;10.65;;
2996;SDS011;1508;48.744;9.110;2022-07-21T05:58:53;11.60;;;10.50;;
2996;SDS011;1508;48.744;9.110;2022-07-21T06:01:39;11.73;;;9.85;;
2996;SDS011;1508;48.744;9.110;2022-07-21T06:04:24;12.73;;;11.43;;
2996;SDS011;1508;48.744;9.110;2022-07-21T06:07:10;13.45;;;11.65;;
2996;SDS011;1508;48.744;9.110;2022-07-21T06:09:56;13.30;;;11.90;;
2996;SDS011;1508;48.744;9.110;2022-07-21T06:12:43;12.30;;;11.00;;
2996;SDS011;1508;48.744;9.110;2022-07-21T06:15:29;11.82;;;10.63;;
2996;SDS011;1508;48.744;9.110;2022-07-21T06:18:15;11.73;;;10.52;;
2996;SDS011;1508;48.744;9.110;2022-07-21T06:21:01;11.47;;;10.27;;
2996;SDS011;1508;48.744;9.110;2022-07-21T06:23:48;12.53;;;11.40;;
2996;SDS011;1508;48.744;9.110;2022-07-21T06:26:34;12.13;;;10.13;;
2996;SDS011;1508;48.744;9.110;2022-07-21T06:29:20;12.20;;;10.55;;
2996;SDS011;1508;48.744;9.110;2022-07-21T06:32:05;11.52;;;10.43;;
2996;SDS011;1508;48.744;9.110;2022-07-21T06:34:51;12.20;;;11.00;;
2996;SDS011;1508;48.744;9.110;2022-07-21T06:37:37;11.50;;;10.40;;
2996;SDS011;1508;48.744;9.110;2022-07-21T06:40:23;12.13;;;10.30;;
2996;SDS011;1508;48.744;9.110;2022-07-21T06:43:10;12.25;;;10.70;;
2996;SDS011;1508;48.744;9.110;2022-07-21T06:45:56;10.85;;;9.85;;
2996;SDS011;1508;48.744;9.110;2022-07-21T06:48:42;11.48;;;10.40;;
2996;SDS011;1508;48.744;9.110;2022-07-21T06:51:29;11.20;;;10.10;;
2996;SDS011;1508;48.744;9.110;2022-07-21T06:54:15;10.20;;;9.10;;
2996;SDS011;1508;48.744;9.110;2022-07-21T06:57:00;11.20;;;10.10;;
2996;SDS011;1508;48.744;9.110;2022-07-21T06:59:46;11.38;;;9.75;;
2996;SDS011;1508;48.744;9.110;2022-07-21T07:02:32;11.45;;;10.35;;
2996;SDS011;1508;48.744;9.110;2022-07-21T07:05:18;10.02;;;9.13;;
2996;SDS011;1508;48.744;9.110;2022-07-21T07:08:04;10.82;;;9.73;;
2996;SDS011;1508;48.744;9.110;2022-07-21T07:10:50;10.98;;;9.98;;
2996;SDS011;1508;48.744;9.110;2022-07-21T07:13:36;11.52;;;10.43;;
2996;SDS011;1508;48.744;9.110;2022-07-21T07:16:22;11.48;;;10.48;;
2996;SDS011;1508;48.744;9.110;2022-07-21T07:19:07;12.70;;;10.38;;
2996;SDS011;1508;48.744;9.110;2022-07-21T07:21:53;11.03;;;9.90;;
2996;SDS011;1508;48.744;9.110;2022-07-21T07:24:39;12.55;;;10.50;;
2996;SDS011;1508;48.744;9.110;2022-07-21T07:27:25;11.98;;;10.70;;
2996;SDS011;1508;48.744;9.110;2022-07-21T07:30:12;12.20;;;11.00;;
2996;SDS011;1508;48.744;9.110;2022-07-21T07:32:58;11.57;;;10.48;;
2996;SDS011;1508;48.744;9.110;2022-07-21T07:35:44;10.60;;;9.60;;
2996;SDS011;1508;48.744;9.110;2022-07-21T07:38:30;11.45;;;10.10;;
2996;SDS011;1508;48.744;9.110;2022-07-21T07:41:15;10.73;;;9.63;;
2996;SDS011;1508;48.744;9.110;2022-07-21T07:44:01;10.82;;;9.65;;
2996;SDS011;1508;48.744;9.110;2022-07-21T07:46:47;13.60;;;10.10;;
2996;SDS011;1508;48.744;9.110;2022-07-21T07:49:33;10.90;;;9.80;;
2996;SDS011;1508;48.744;9.110;2022-07-21T07:52:20;9.82;;;8.82;;
2996;SDS011;1508;48.744;9.110;2022-07-21T07:55:07;10.00;;;9.00;;
2996;SDS011;1508;48.744;9.110;2022-07-21T07:57:53;10.27;;;9.27;;
2996;SDS011;1508;48.744;9.110;2022-07-21T08:00:39;11.32;;;10.00;;
2996;SDS011;1508;48.744;9.110;2022-07-21T08:03:26;11.77;;;9.95;;
2996;SDS011;1508;48.744;9.110;2022-07-21T08:06:12;10.77;;;9.32;;
2996;SDS011;1508;48.744;9.110;2022-07-21T08:08:58;9.57;;;8.60;;
2996;SDS011;1508;48.744;9.110;2022-07-21T08:11:44;10.50;;;9.45;;
2996;SDS011;1508;48.744;9.110;2022-07-21T08:14:31;9.95;;;8.48;;
2996;SDS011;1508;48.744;9.110;2022-07-21T08:17:16;9.30;;;8.40;;
2996;SDS011;1508;48.744;9.110;2022-07-21T08:20:03;9.57;;;8.57;;
2996;SDS011;1508;48.744;9.110;2022-07-21T08:22:49;10.60;;;8.73;;
2996;SDS011;1508;48.744;9.110;2022-07-21T08:25:35;9.68;;;8.73;;
2996;SDS011;1508;48.744;9.110;2022-07-21T08:28:21;9.10;;;8.20;;
2996;SDS011;1508;48.744;9.110;2022-07-21T08:31:07;9.37;;;8.47;;
2996;SDS011;1508;48.744;9.110;2022-07-21T08:33:53;10.82;;;8.02;;
2996;SDS011;1508;48.744;9.110;2022-07-21T08:36:39;9.43;;;8.30;;
2996;SDS011;1508;48.744;9.110;2022-07-21T08:39:25;9.80;;;8.80;;
2996;SDS011;1508;48.744;9.110;2022-07-21T08:42:11;9.25;;;8.27;;
2996;SDS011;1508;48.744;9.110;2022-07-21T08:44:58;8.35;;;7.55;;
2996;SDS011;1508;48.744;9.110;2022-07-21T08:47:44;8.60;;;7.80;;
2996;SDS011;1508;48.744;9.110;2022-07-21T08:50:34;8.50;;;7.60;;
2996;SDS011;1508;48.744;9.110;2022-07-21T08:53:21;8.02;;;7.20;;
2996;SDS011;1508;48.744;9.110;2022-07-21T08:56:08;7.70;;;6.90;;
2996;SDS011;1508;48.744;9.110;2022-07-21T08:58:54;8.07;;;7.28;;
2996;SDS011;1508;48.744;9.110;2022-07-21T09:01:40;8.30;;;7.40;;
2996;SDS011;1508;48.744;9.110;2022-07-21T09:04:33;9.55;;;8.55;;
2996;SDS011;1508;48.744;9.110;2022-07-21T09:07:19;8.82;;;7.95;;
2996;SDS011;1508;48.744;9.110;2022-07-21T09:10:05;8.43;;;7.63;;
2996;SDS011;1508;48.744;9.110;2022-07-21T09:12:52;8.70;;;7.80;;
2996;SDS011;1508;48.744;9.110;2022-07-21T09:15:40;8.50;;;7.40;;
2996;SDS011;1508;48.744;9.110;2022-07-21T09:18:26;7.72;;;6.93;;
2996;SDS011;1508;48.744;9.110;2022-07-21T09:21:12;8.77;;;7.82;;
2996;SDS011;1508;48.744;9.110;2022-07-21T09:24:16;8.00;;;7.10;;
2996;SDS011;1508;48.744;9.110;2022-07-21T09:32:42;8.77;;;7.00;;
2996;SDS011;1508;48.744;9.110;2022-07-21T09:35:28;7.60;;;7.00;;
2996;SDS011;1508;48.744;9.110;2022-07-21T09:38:14;7.95;;;6.90;;
2996;SDS011;1508;48.744;9.110;2022-07-21T09:41:03;8.18;;;6.93;;
2996;SDS011;1508;48.744;9.110;2022-07-21T09:43:52;7.15;;;6.45;;
2996;SDS011;1508;48.744;9.110;2022-07-21T09:46:39;7.60;;;6.43;;
2996;SDS011;1508;48.744;9.110;2022-07-21T09:49:30;8.15;;;6.10;;
2996;SDS011;1508;48.744;9.110;2022-07-21T09:52:21;6.30;;;5.70;;
2996;SDS011;1508;48.744;9.110;2022-07-21T09:55:08;6.65;;;5.50;;
2996;SDS011;1508;48.744;9.110;2022-07-21T09:57:55;5.63;;;5.00;;
2996;SDS011;1508;48.744;9.110;2022-07-21T10:00:42;6.60;;;5.53;;
2996;SDS011;1508;48.744;9.110;2022-07-21T10:03:28;6.45;;;5.20;;
2996;SDS011;1508;48.744;9.110;2022-07-21T10:06:17;6.25;;;5.18;;
2996;SDS011;1508;48.744;9.110;2022-07-21T10:09:08;5.07;;;4.60;;
2996;SDS011;1508;48.744;9.110;2022-07-21T10:11:54;6.00;;;4.53;;
2996;SDS011;1508;48.744;9.110;2022-07-21T10:14:41;4.85;;;4.00;;
2996;SDS011;1508;48.744;9.110;2022-07-21T10:17:27;5.97;;;4.57;;
2996;SDS011;1508;48.744;9.110;2022-07-21T10:25:59;5.35;;;4.32;;
2996;SDS011;1508;48.744;9.110;2022-07-21T10:28:45;5.93;;;4.03;;
2996;SDS011;1508;48.744;9.110;2022-07-21T10:31:31;5.30;;;4.47;;
2996;SDS011;1508;48.744;9.110;2022-07-21T10:34:34;5.43;;;4.45;;
2996;SDS011;1508;48.744;9.110;2022-07-21T10:46:31;4.70;;;3.97;;
2996;SDS011;1508;48.744;9.110;2022-07-21T10:49:40;6.40;;;3.90;;
2996;SDS011;1508;48.744;9.110;2022-07-21T10:55:24;4.70;;;4.03;;
2996;SDS011;1508;48.744;9.110;2022-07-21T11:01:05;5.60;;;3.90;;
2996;SDS011;1508;48.744;9.110;2022-07-21T11:04:12;4.20;;;3.60;;
2996;SDS011;1508;48.744;9.110;2022-07-21T11:06:59;4.20;;;3.80;;
2996;SDS011;1508;48.744;9.110;2022-07-21T11:10:13;7.10;;;4.10;;
2996;SDS011;1508;48.744;9.110;2022-07-21T11:13:01;4.20;;;3.70;;
2996;SDS011;1508;48.744;9.110;2022-07-21T11:18:36;4.63;;;4.20;;
2996;SDS011;1508;48.744;9.110;2022-07-21T11:21:27;4.95;;;4.43;;
2996;SDS011;1508;48.744;9.110;2022-07-21T11:24:17;4.78;;;3.95;;
2996;SDS011;1508;48.744;9.110;2022-07-21T11:27:12;4.70;;;3.90;;
2996;SDS011;1508;48.744;9.110;2022-07-21T11:30:06;5.00;;;4.50;;
2996;SDS011;1508;48.744;9.110;2022-07-21T11:32:53;5.65;;;4.53;;
2996;SDS011;1508;48.744;9.110;2022-07-21T11:35:39;5.57;;;4.00;;
2996;SDS011;1508;48.744;9.110;2022-07-21T11:38:25;5.33;;;4.10;;
2996;SDS011;1508;48.744;9.110;2022-07-21T11:41:17;5.32;;;4.82;;
2996;SDS011;1508;48.744;9.110;2022-07-21T11:44:04;4.95;;;4.50;;
2996;SDS011;1508;48.744;9.110;2022-07-21T11:46:52;4.80;;;4.40;;
2996;SDS011;1508;48.744;9.110;2022-07-21T11:49:43;5.50;;;4.20;;
2996;SDS011;1508;48.744;9.110;2022-07-21T11:52:30;4.88;;;3.95;;
2996;SDS011;1508;48.744;9.110;2022-07-21T11:55:19;5.67;;;4.60;;
2996;SDS011;1508;48.744;9.110;2022-07-21T11:58:05;4.70;;;4.20;;
2996;SDS011;1508;48.744;9.110;2022-07-21T12:01:05;6.63;;;4.72;;
2996;SDS011;1508;48.744;9.110;2022-07-21T12:03:53;4.85;;;4.35;;
2996;SDS011;1508;48.744;9.110;2022-07-21T12:06:38;5.95;;;4.10;;
2996;SDS011;1508;48.744;9.110;2022-07-21T12:09:25;5.57;;;4.20;;
2996;SDS011;1508;48.744;9.110;2022-07-21T12:12:11;4.80;;;4.40;;
2996;SDS011;1508;48.744;9.110;2022-07-21T12:14:58;5.28;;;4.78;;
2996;SDS011;1508;48.744;9.110;2022-07-21T12:18:21;4.85;;;4.43;;
2996;SDS011;1508;48.744;9.110;2022-07-21T12:21:08;4.90;;;4.40;;
2996;SDS011;1508;48.744;9.110;2022-07-21T12:23:54;5.32;;;4.40;;
2996;SDS011;1508;48.744;9.110;2022-07-21T12:26:39;5.63;;;4.50;;
2996;SDS011;1508;48.744;9.110;2022-07-21T12:29:26;5.70;;;5.10;;
2996;SDS011;1508;48.744;9.110;2022-07-21T12:32:13;5.90;;;5.30;;
2996;SDS011;1508;48.744;9.110;2022-07-21T12:35:00;5.73;;;5.13;;
2996;SDS011;1508;48.744;9.110;2022-07-21T12:38:02;6.30;;;5.43;;
2996;SDS011;1508;48.744;9.110;2022-07-21T12:40:56;6.70;;;5.80;;
2996;SDS011;1508;48.744;9.110;2022-07-21T12:43:42;6.43;;;5.10;;
2996;SDS011;1508;48.744;9.110;2022-07-21T12:46:32;5.00;;;4.50;;
2996;SDS011;1508;48.744;9.110;2022-07-21T12:49:19;6.80;;;5.70;;
2996;SDS011;1508;48.744;9.110;2022-07-21T12:52:05;6.07;;;5.47;;
2996;SDS011;1508;48.744;9.110;2022-07-21T12:54:52;5.70;;;5.20;;
2996;SDS011;1508;48.744;9.110;2022-07-21T12:57:39;6.15;;;4.97;;
2996;SDS011;1508;48.744;9.110;2022-07-21T13:00:25;8.10;;;5.68;;
2996;SDS011;1508;48.744;9.110;2022-07-21T13:03:11;8.33;;;6.00;;
2996;SDS011;1508;48.744;9.110;2022-07-21T13:05:57;6.22;;;5.63;;
2996;SDS011;1508;48.744;9.110;2022-07-21T13:08:44;5.93;;;5.32;;
2996;SDS011;1508;48.744;9.110;2022-07-21T13:11:31;7.43;;;5.73;;
2996;SDS011;1508;48.744;9.110;2022-07-21T13:14:17;7.43;;;6.03;;
2996;SDS011;1508;48.744;9.110;2022-07-21T13:17:03;7.50;;;5.68;;
2996;SDS011;1508;48.744;9.110;2022-07-21T13:19:49;7.55;;;6.03;;
2996;SDS011;1508;48.744;9.110;2022-07-21T13:22:35;6.20;;;5.37;;
2996;SDS011;1508;48.744;9.110;2022-07-21T13:25:21;6.38;;;5.30;;
2996;SDS011;1508;48.744;9.110;2022-07-21T13:28:07;6.25;;;5.65;;
2996;SDS011;1508;48.744;9.110;2022-07-21T13:30:52;6.13;;;5.60;;
2996;SDS011;1508;48.744;9.110;2022-07-21T13:33:38;6.25;;;5.70;;
2996;SDS011;1508;48.744;9.110;2022-07-21T13:36:24;7.10;;;6.40;;
2996;SDS011;1508;48.744;9.110;2022-07-21T13:39:10;6.40;;;5.70;;
2996;SDS011;1508;48.744;9.110;2022-07-21T13:41:56;6.83;;;5.47;;
2996;SDS011;1508;48.744;9.110;2022-07-21T13:44:42;7.30;;;6.00;;
2996;SDS011;1508;48.744;9.110;2022-07-21T13:47:28;6.95;;;6.32;;
2996;SDS011;1508;48.744;9.110;2022-07-21T13:50:14;8.23;;;6.07;;
2996;SDS011;1508;48.744;9.110;2022-07-21T13:53:00;7.30;;;6.60;;
2996;SDS011;1508;48.744;9.110;2022-07-21T13:55:46;6.30;;;5.70;;
2996;SDS011;1508;48.744;9.110;2022-07-21T13:58:32;8.95;;;5.60;;
2996;SDS011;1508;48.744;9.110;2022-07-21T14:01:18;6.05;;;5.53;;
2996;SDS011;1508;48.744;9.110;2022-07-21T14:04:04;6.10;;;5.60;;
2996;SDS011;1508;48.744;9.110;2022-07-21T14:06:50;6.40;;;5.85;;
2996;SDS011;1508;48.744;9.110;2022-07-21T14:09:36;6.63;;;5.78;;
2996;SDS011;1508;48.744;9.110;2022-07-21T14:12:22;5.90;;;5.30;;
2996;SDS011;1508;48.744;9.110;2022-07-21T14:15:08;6.15;;;5.50;;
2996;SDS011;1508;48.744;9.110;2022-07-21T14:17:55;6.47;;;5.45;;
2996;SDS011;1508;48.744;9.110;2022-07-21T14:20:40;5.78;;;5.28;;
2996;SDS011;1508;48.744;9.110;2022-07-21T14:23:26;5.63;;;5.13;;
2996;SDS011;1508;48.744;9.110;2022-07-21T14:26:12;6.10;;;5.60;;
2996;SDS011;1508;48.744;9.110;2022-07-21T14:28:58;6.30;;;5.70;;
2996;SDS011;1508;48.744;9.110;2022-07-21T14:31:44;6.80;;;5.70;;
2996;SDS011;1508;48.744;9.110;2022-07-21T14:34:30;6.00;;;5.40;;
2996;SDS011;1508;48.744;9.110;2022-07-21T14:37:16;6.80;;;6.20;;
2996;SDS011;1508;48.744;9.110;2022-07-21T14:40:03;6.10;;;5.50;;
2996;SDS011;1508;48.744;9.110;2022-07-21T14:42:50;7.13;;;5.72;;
2996;SDS011;1508;48.744;9.110;2022-07-21T14:45:36;6.80;;;5.80;;
2996;SDS011;1508;48.744;9.110;2022-07-21T14:48:22;9.23;;;6.25;;
2996;SDS011;1508;48.744;9.110;2022-07-21T14:51:08;6.97;;;5.90;;
2996;SDS011;1508;48.744;9.110;2022-07-21T14:53:53;6.55;;;5.95;;
2996;SDS011;1508;48.744;9.110;2022-07-21T14:56:39;5.90;;;5.40;;
2996;SDS011;1508;48.744;9.110;2022-07-21T14:59:25;5.60;;;5.03;;
2996;SDS011;1508;48.744;9.110;2022-07-21T15:02:11;6.45;;;5.40;;
2996;SDS011;1508;48.744;9.110;2022-07-21T15:04:57;5.55;;;5.05;;
2996;SDS011;1508;48.744;9.110;2022-07-21T15:07:43;5.55;;;5.05;;
2996;SDS011;1508;48.744;9.110;2022-07-21T15:10:29;6.07;;;4.95;;
2996;SDS011;1508;48.744;9.110;2022-07-21T15:13:15;5.90;;;5.07;;
2996;SDS011;1508;48.744;9.110;2022-07-21T15:16:01;6.45;;;5.10;;
2996;SDS011;1508;48.744;9.110;2022-07-21T15:18:47;6.88;;;5.28;;
2996;SDS011;1508;48.744;9.110;2022-07-21T15:21:33;5.03;;;4.50;;
2996;SDS011;1508;48.744;9.110;2022-07-21T15:24:19;5.50;;;4.90;;
2996;SDS011;1508;48.744;9.110;2022-07-21T15:27:05;5.80;;;5.10;;
2996;SDS011;1508;48.744;9.110;2022-07-21T15:29:51;7.45;;;4.80;;
2996;SDS011;1508;48.744;9.110;2022-07-21T15:32:37;6.10;;;5.10;;
2996;SDS011;1508;48.744;9.110;2022-07-21T15:35:22;5.30;;;4.90;;
2996;SDS011;1508;48.744;9.110;2022-07-21T15:38:08;5.30;;;4.80;;
2996;SDS011;1508;48.744;9.110;2022-07-21T15:40:54;5.72;;;5.13;;
2996;SDS011;1508;48.744;9.110;2022-07-21T15:43:40;5.50;;;5.00;;
2996;SDS011;1508;48.744;9.110;2022-07-21T15:46:26;6.35;;;4.90;;
2996;SDS011;1508;48.744;9.110;2022-07-21T15:49:12;5.70;;;4.82;;
2996;SDS011;1508;48.744;9.110;2022-07-21T15:51:58;6.10;;;4.65;;
2996;SDS011;1508;48.744;9.110;2022-07-21T15:58:21;5.50;;;5.00;;
2996;SDS011;1508;48.744;9.110;2022-07-21T16:01:07;5.47;;;5.00;;
2996;SDS011;1508;48.744;9.110;2022-07-21T16:03:53;5.80;;;5.30;;
2996;SDS011;1508;48.744;9.110;2022-07-21T16:06:39;5.18;;;4.68;;
2996;SDS011;1508;48.744;9.110;2022-07-21T16:09:24;5.75;;;5.03;;
2996;SDS011;1508;48.744;9.110;2022-07-21T16:12:11;5.72;;;5.03;;
2996;SDS011;1508;48.744;9.110;2022-07-21T16:14:57;5.00;;;4.50;;
2996;SDS011;1508;48.744;9.110;2022-07-21T16:17:43;7.25;;;4.35;;
2996;SDS011;1508;48.744;9.110;2022-07-21T16:20:29;5.20;;;4.70;;
2996;SDS011;1508;48.744;9.110;2022-07-21T16:23:15;4.90;;;4.50;;
2996;SDS011;1508;48.744;9.110;2022-07-21T16:26:01;5.30;;;4.80;;
2996;SDS011;1508;48.744;9.110;2022-07-21T16:28:47;4.97;;;4.47;;
2996;SDS011;1508;48.744;9.110;2022-07-21T16:31:33;5.20;;;4.50;;
2996;SDS011;1508;48.744;9.110;2022-07-21T16:34:20;5.30;;;4.80;;
2996;SDS011;1508;48.744;9.110;2022-07-21T16:37:07;5.28;;;4.78;;
2996;SDS011;1508;48.744;9.110;2022-07-21T16:39:53;4.80;;;4.40;;
2996;SDS011;1508;48.744;9.110;2022-07-21T16:42:39;5.57;;;4.30;;
2996;SDS011;1508;48.744;9.110;2022-07-21T16:45:24;6.80;;;4.80;;
2996;SDS011;1508;48.744;9.110;2022-07-21T16:48:10;5.00;;;4.55;;
2996;SDS011;1508;48.744;9.110;2022-07-21T16:50:56;4.70;;;4.30;;
2996;SDS011;1508;48.744;9.110;2022-07-21T16:53:45;5.60;;;4.30;;
2996;SDS011;1508;48.744;9.110;2022-07-21T16:56:32;5.65;;;4.40;;
2996;SDS011;1508;48.744;9.110;2022-07-21T16:59:18;5.10;;;4.60;;
2996;SDS011;1508;48.744;9.110;2022-07-21T17:02:04;4.97;;;4.43;;
2996;SDS011;1508;48.744;9.110;2022-07-21T17:04:50;5.57;;;4.77;;
2996;SDS011;1508;48.744;9.110;2022-07-21T17:07:36;5.50;;;4.50;;
2996;SDS011;1508;48.744;9.110;2022-07-21T17:10:22;5.30;;;4.80;;
2996;SDS011;1508;48.744;9.110;2022-07-21T17:13:08;5.53;;;4.93;;
2996;SDS011;1508;48.744;9.110;2022-07-21T17:15:53;4.57;;;4.15;;
2996;SDS011;1508;48.744;9.110;2022-07-21T17:18:40;5.50;;;4.50;;
2996;SDS011;1508;48.744;9.110;2022-07-21T17:21:26;5.60;;;4.50;;
2996;SDS011;1508;48.744;9.110;2022-07-21T17:24:12;5.82;;;5.00;;
2996;SDS011;1508;48.744;9.110;2022-07-21T17:26:57;5.22;;;4.72;;
2996;SDS011;1508;48.744;9.110;2022-07-21T17:29:43;5.60;;;4.80;;
2996;SDS011;1508;48.744;9.110;2022-07-21T17:32:29;7.33;;;4.87;;
2996;SDS011;1508;48.744;9.110;2022-07-21T17:35:15;6.30;;;5.05;;
2996;SDS011;1508;48.744;9.110;2022-07-21T17:38:01;5.60;;;4.93;;